sensor_id;sensor_type;location;lat;lon;timestamp;temperature;humidity
27368;DHT22;14839;48.106;11.618;2024-01-07T12:09:26;1.60;94.60
27368;DHT22;14839;48.106;11.618;2024-01-07T12:11:52;2.10;94.60
27368;DHT22;14839;48.106;11.618;2024-01-07T12:14:18;2.00;94.60
27368;DHT22;14839;48.106;11.618;2024-01-07T12:16:44;2.00;94.60
27368;DHT22;14839;48.106;11.618;2024-01-07T12:19:10;2.00;94.60
27368;DHT22;14839;48.106;11.618;2024-01-07T12:21:36;1.90;94.60
27368;DHT22;14839;48.106;11.618;2024-01-07T12:24:03;1.80;94.60
27368;DHT22;14839;48.106;11.618;2024-01-07T12:26:29;1.80;94.60
27368;DHT22;14839;48.106;11.618;2024-01-07T12:28:57;1.90;94.60
27368;DHT22;14839;48.106;11.618;2024-01-07T12:31:33;1.90;94.60
27368;DHT22;14839;48.106;11.618;2024-01-07T12:33:59;1.80;94.60
27368;DHT22;14839;48.106;11.618;2024-01-07T12:36:26;1.80;94.60
27368;DHT22;14839;48.106;11.618;2024-01-07T12:38:52;1.80;94.60
27368;DHT22;14839;48.106;11.618;2024-01-07T12:41:22;1.70;94.60
27368;DHT22;14839;48.106;11.618;2024-01-07T12:43:48;1.80;94.60
27368;DHT22;14839;48.106;11.618;2024-01-07T12:46:14;1.80;94.60
27368;DHT22;14839;48.106;11.618;2024-01-07T12:48:40;2.00;94.60
27368;DHT22;14839;48.106;11.618;2024-01-07T12:51:05;2.10;94.60
27368;DHT22;14839;48.106;11.618;2024-01-07T12:53:31;2.00;94.60
27368;DHT22;14839;48.106;11.618;2024-01-07T12:55:57;1.90;94.60
27368;DHT22;14839;48.106;11.618;2024-01-07T12:58:22;2.00;94.60
27368;DHT22;14839;48.106;11.618;2024-01-07T13:00:48;1.90;94.60
27368;DHT22;14839;48.106;11.618;2024-01-07T13:03:14;1.80;94.60
27368;DHT22;14839;48.106;11.618;2024-01-07T13:05:43;1.70;94.60
27368;DHT22;14839;48.106;11.618;2024-01-07T13:08:09;1.70;94.60
27368;DHT22;14839;48.106;11.618;2024-01-07T13:10:34;1.70;94.60
27368;DHT22;14839;48.106;11.618;2024-01-07T13:13:00;1.60;94.60
27368;DHT22;14839;48.106;11.618;2024-01-07T13:15:25;1.50;94.60
27368;DHT22;14839;48.106;11.618;2024-01-07T13:17:51;1.60;94.60
27368;DHT22;14839;48.106;11.618;2024-01-07T13:20:16;1.60;94.60
27368;DHT22;14839;48.106;11.618;2024-01-07T13:22:45;1.60;94.60
27368;DHT22;14839;48.106;11.618;2024-01-07T13:25:11;1.60;94.60
27368;DHT22;14839;48.106;11.618;2024-01-07T13:27:37;1.60;94.60
27368;DHT22;14839;48.106;11.618;2024-01-07T13:30:04;1.70;94.60
27368;DHT22;14839;48.106;11.618;2024-01-07T13:32:29;1.60;94.60
27368;DHT22;14839;48.106;11.618;2024-01-07T13:34:55;1.60;94.60
27368;DHT22;14839;48.106;11.618;2024-01-07T13:37:20;1.60;94.60
27368;DHT22;14839;48.106;11.618;2024-01-07T13:39:47;1.50;94.60
27368;DHT22;14839;48.106;11.618;2024-01-07T13:42:14;1.40;94.60
27368;DHT22;14839;48.106;11.618;2024-01-07T13:44:40;1.30;94.60
27368;DHT22;14839;48.106;11.618;2024-01-07T13:47:12;1.20;94.60
27368;DHT22;14839;48.106;11.618;2024-01-07T13:49:42;1.20;94.60
27368;DHT22;14839;48.106;11.618;2024-01-07T13:52:10;1.10;94.60
27368;DHT22;14839;48.106;11.618;2024-01-07T13:54:36;1.10;94.60
27368;DHT22;14839;48.106;11.618;2024-01-07T13:57:03;1.10;94.60
27368;DHT22;14839;48.106;11.618;2024-01-07T13:59:28;1.10;94.60
27368;DHT22;14839;48.106;11.618;2024-01-07T14:01:54;1.10;94.60
27368;DHT22;14839;48.106;11.618;2024-01-07T14:04:20;1.10;94.60
27368;DHT22;14839;48.106;11.618;2024-01-07T14:06:45;1.10;94.60
27368;DHT22;14839;48.106;11.618;2024-01-07T14:09:12;1.10;94.60
27368;DHT22;14839;48.106;11.618;2024-01-07T14:11:38;1.00;94.60
27368;DHT22;14839;48.106;11.618;2024-01-07T14:14:03;0.90;94.60
27368;DHT22;14839;48.106;11.618;2024-01-07T14:16:29;0.90;94.60
27368;DHT22;14839;48.106;11.618;2024-01-07T14:18:54;1.00;94.60
27368;DHT22;14839;48.106;11.618;2024-01-07T14:21:20;0.90;94.60
27368;DHT22;14839;48.106;11.618;2024-01-07T14:23:47;0.90;94.60
27368;DHT22;14839;48.106;11.618;2024-01-07T14:26:12;0.90;94.60
27368;DHT22;14839;48.106;11.618;2024-01-07T14:28:38;0.80;94.60
27368;DHT22;14839;48.106;11.618;2024-01-07T14:31:03;0.80;94.60
27368;DHT22;14839;48.106;11.618;2024-01-07T14:33:29;0.80;94.60
27368;DHT22;14839;48.106;11.618;2024-01-07T14:35:55;0.80;94.60
27368;DHT22;14839;48.106;11.618;2024-01-07T14:38:20;0.80;94.60
27368;DHT22;14839;48.106;11.618;2024-01-07T14:40:46;0.80;94.60
27368;DHT22;14839;48.106;11.618;2024-01-07T14:43:12;0.80;94.60
27368;DHT22;14839;48.106;11.618;2024-01-07T14:45:38;0.80;94.60
27368;DHT22;14839;48.106;11.618;2024-01-07T14:48:04;0.60;94.60
27368;DHT22;14839;48.106;11.618;2024-01-07T14:50:30;0.60;94.60
27368;DHT22;14839;48.106;11.618;2024-01-07T14:52:55;0.60;94.60
27368;DHT22;14839;48.106;11.618;2024-01-07T14:55:21;0.70;94.60
27368;DHT22;14839;48.106;11.618;2024-01-07T14:57:46;0.60;94.60
27368;DHT22;14839;48.106;11.618;2024-01-07T15:00:12;0.60;94.60
27368;DHT22;14839;48.106;11.618;2024-01-07T15:02:39;0.60;94.60
27368;DHT22;14839;48.106;11.618;2024-01-07T15:05:05;0.50;94.60
27368;DHT22;14839;48.106;11.618;2024-01-07T15:07:30;0.50;94.60
27368;DHT22;14839;48.106;11.618;2024-01-07T15:09:56;0.50;94.60
27368;DHT22;14839;48.106;11.618;2024-01-07T15:12:22;0.40;94.60
27368;DHT22;14839;48.106;11.618;2024-01-07T15:14:48;0.40;94.60
27368;DHT22;14839;48.106;11.618;2024-01-07T15:17:14;0.40;94.60
27368;DHT22;14839;48.106;11.618;2024-01-07T15:19:42;0.40;94.60
27368;DHT22;14839;48.106;11.618;2024-01-07T15:22:07;0.30;94.60
27368;DHT22;14839;48.106;11.618;2024-01-07T15:24:33;0.40;94.60
27368;DHT22;14839;48.106;11.618;2024-01-07T15:26:59;0.40;94.60
27368;DHT22;14839;48.106;11.618;2024-01-07T15:29:24;0.30;94.60
27368;DHT22;14839;48.106;11.618;2024-01-07T15:31:50;0.30;94.60
27368;DHT22;14839;48.106;11.618;2024-01-07T15:34:15;0.30;94.60
27368;DHT22;14839;48.106;11.618;2024-01-07T15:36:41;0.20;94.60
27368;DHT22;14839;48.106;11.618;2024-01-07T15:39:07;0.30;94.60
27368;DHT22;14839;48.106;11.618;2024-01-07T15:41:35;0.30;94.60
27368;DHT22;14839;48.106;11.618;2024-01-07T15:44:00;0.20;94.60
27368;DHT22;14839;48.106;11.618;2024-01-07T15:46:27;0.20;94.60
27368;DHT22;14839;48.106;11.618;2024-01-07T15:48:53;0.10;94.60
27368;DHT22;14839;48.106;11.618;2024-01-07T15:51:19;0.10;94.60
27368;DHT22;14839;48.106;11.618;2024-01-07T15:53:44;0.10;94.60
27368;DHT22;14839;48.106;11.618;2024-01-07T15:56:10;0.10;94.60
27368;DHT22;14839;48.106;11.618;2024-01-07T15:58:37;0.00;94.60
27368;DHT22;14839;48.106;11.618;2024-01-07T16:01:03;0.10;94.60
27368;DHT22;14839;48.106;11.618;2024-01-07T16:03:32;0.00;94.60
27368;DHT22;14839;48.106;11.618;2024-01-07T16:05:59;0.00;94.60
27368;DHT22;14839;48.106;11.618;2024-01-07T16:08:25;0.00;94.60
27368;DHT22;14839;48.106;11.618;2024-01-07T16:10:56;0.10;94.60
27368;DHT22;14839;48.106;11.618;2024-01-07T16:13:22;0.00;94.60
27368;DHT22;14839;48.106;11.618;2024-01-07T16:15:47;0.00;94.60
27368;DHT22;14839;48.106;11.618;2024-01-07T16:18:13;0.00;94.60
27368;DHT22;14839;48.106;11.618;2024-01-07T16:20:39;0.00;94.60
27368;DHT22;14839;48.106;11.618;2024-01-07T16:23:06;-0.10;94.60
27368;DHT22;14839;48.106;11.618;2024-01-07T16:25:31;-0.10;94.60
27368;DHT22;14839;48.106;11.618;2024-01-07T16:27:57;-0.10;94.60
27368;DHT22;14839;48.106;11.618;2024-01-07T16:30:24;-0.10;94.60
27368;DHT22;14839;48.106;11.618;2024-01-07T16:32:50;-0.10;94.60
27368;DHT22;14839;48.106;11.618;2024-01-07T16:35:16;-0.10;94.60
27368;DHT22;14839;48.106;11.618;2024-01-07T16:37:42;-0.20;94.60
27368;DHT22;14839;48.106;11.618;2024-01-07T16:40:08;-0.20;94.60
27368;DHT22;14839;48.106;11.618;2024-01-07T16:42:34;-0.10;94.60
27368;DHT22;14839;48.106;11.618;2024-01-07T16:45:00;-0.10;94.60
27368;DHT22;14839;48.106;11.618;2024-01-07T16:47:26;-0.10;94.60
27368;DHT22;14839;48.106;11.618;2024-01-07T16:49:52;0.00;94.60
27368;DHT22;14839;48.106;11.618;2024-01-07T16:52:18;-0.10;94.60
27368;DHT22;14839;48.106;11.618;2024-01-07T16:54:43;-0.10;94.60
27368;DHT22;14839;48.106;11.618;2024-01-07T16:57:11;-0.10;94.60
27368;DHT22;14839;48.106;11.618;2024-01-07T16:59:38;-0.10;94.60
27368;DHT22;14839;48.106;11.618;2024-01-07T17:02:05;-0.20;94.60
27368;DHT22;14839;48.106;11.618;2024-01-07T17:04:30;-0.20;94.60
27368;DHT22;14839;48.106;11.618;2024-01-07T17:06:56;-0.20;94.60
27368;DHT22;14839;48.106;11.618;2024-01-07T17:09:21;-0.20;94.60
27368;DHT22;14839;48.106;11.618;2024-01-07T17:11:49;-0.10;94.60
27368;DHT22;14839;48.106;11.618;2024-01-07T17:14:15;-0.20;94.60
27368;DHT22;14839;48.106;11.618;2024-01-07T17:16:40;-0.10;94.60
27368;DHT22;14839;48.106;11.618;2024-01-07T17:19:07;-0.20;94.60
27368;DHT22;14839;48.106;11.618;2024-01-07T17:21:32;-0.20;94.60
27368;DHT22;14839;48.106;11.618;2024-01-07T17:23:58;-0.20;94.60
27368;DHT22;14839;48.106;11.618;2024-01-07T17:26:23;-0.20;94.60
27368;DHT22;14839;48.106;11.618;2024-01-07T17:28:49;-0.20;94.60
27368;DHT22;14839;48.106;11.618;2024-01-07T17:31:15;-0.20;94.60
27368;DHT22;14839;48.106;11.618;2024-01-07T17:33:40;-0.20;94.60
27368;DHT22;14839;48.106;11.618;2024-01-07T17:36:06;-0.30;94.60
27368;DHT22;14839;48.106;11.618;2024-01-07T17:38:32;-0.30;94.60
27368;DHT22;14839;48.106;11.618;2024-01-07T17:40:58;-0.30;94.60
27368;DHT22;14839;48.106;11.618;2024-01-07T17:43:24;-0.30;94.60
27368;DHT22;14839;48.106;11.618;2024-01-07T17:45:51;-0.20;94.60
27368;DHT22;14839;48.106;11.618;2024-01-07T17:48:17;-0.20;94.60
27368;DHT22;14839;48.106;11.618;2024-01-07T17:50:42;-0.30;94.60
27368;DHT22;14839;48.106;11.618;2024-01-07T17:53:11;-0.30;94.60
27368;DHT22;14839;48.106;11.618;2024-01-07T17:55:40;-0.30;94.60
27368;DHT22;14839;48.106;11.618;2024-01-07T17:58:06;-0.30;94.60
27368;DHT22;14839;48.106;11.618;2024-01-07T18:00:31;-0.30;94.60
27368;DHT22;14839;48.106;11.618;2024-01-07T18:02:58;-0.40;94.60
27368;DHT22;14839;48.106;11.618;2024-01-07T18:05:27;-0.40;94.60
27368;DHT22;14839;48.106;11.618;2024-01-07T18:07:53;-0.40;94.60
27368;DHT22;14839;48.106;11.618;2024-01-07T18:10:18;-0.40;94.60
27368;DHT22;14839;48.106;11.618;2024-01-07T18:12:44;-0.40;94.60
27368;DHT22;14839;48.106;11.618;2024-01-07T18:15:10;-0.30;94.60
27368;DHT22;14839;48.106;11.618;2024-01-07T18:17:35;-0.30;94.60
27368;DHT22;14839;48.106;11.618;2024-01-07T18:20:02;-0.40;94.60
27368;DHT22;14839;48.106;11.618;2024-01-07T18:22:28;-0.50;94.60
27368;DHT22;14839;48.106;11.618;2024-01-07T18:24:53;-0.50;94.60
27368;DHT22;14839;48.106;11.618;2024-01-07T18:27:19;-0.40;94.60
27368;DHT22;14839;48.106;11.618;2024-01-07T18:29:45;-0.50;94.60
27368;DHT22;14839;48.106;11.618;2024-01-07T18:32:11;-0.50;94.60
27368;DHT22;14839;48.106;11.618;2024-01-07T18:34:37;-0.50;94.60
27368;DHT22;14839;48.106;11.618;2024-01-07T18:37:03;-0.60;94.60
27368;DHT22;14839;48.106;11.618;2024-01-07T18:39:28;-0.50;94.60
27368;DHT22;14839;48.106;11.618;2024-01-07T18:41:54;-0.70;94.60
27368;DHT22;14839;48.106;11.618;2024-01-07T18:44:20;-0.70;94.60
27368;DHT22;14839;48.106;11.618;2024-01-07T18:46:45;-0.70;94.60
27368;DHT22;14839;48.106;11.618;2024-01-07T18:49:11;-0.70;94.60
27368;DHT22;14839;48.106;11.618;2024-01-07T18:51:43;-0.70;94.60
27368;DHT22;14839;48.106;11.618;2024-01-07T18:54:11;-0.70;94.60
27368;DHT22;14839;48.106;11.618;2024-01-07T18:56:38;-0.70;94.60
27368;DHT22;14839;48.106;11.618;2024-01-07T18:59:05;-0.70;94.60
27368;DHT22;14839;48.106;11.618;2024-01-07T19:01:31;-0.70;94.60
27368;DHT22;14839;48.106;11.618;2024-01-07T19:03:57;-0.70;94.60
27368;DHT22;14839;48.106;11.618;2024-01-07T19:06:23;-0.60;94.60
27368;DHT22;14839;48.106;11.618;2024-01-07T19:08:49;-0.70;94.60
27368;DHT22;14839;48.106;11.618;2024-01-07T19:11:15;-0.70;94.60
27368;DHT22;14839;48.106;11.618;2024-01-07T19:13:40;-0.80;94.60
27368;DHT22;14839;48.106;11.618;2024-01-07T19:16:06;-0.80;94.60
27368;DHT22;14839;48.106;11.618;2024-01-07T19:18:33;-0.90;94.60
27368;DHT22;14839;48.106;11.618;2024-01-07T19:20:59;-0.90;94.60
27368;DHT22;14839;48.106;11.618;2024-01-07T19:23:25;-0.90;94.60
27368;DHT22;14839;48.106;11.618;2024-01-07T19:25:51;-0.90;94.60
27368;DHT22;14839;48.106;11.618;2024-01-07T19:28:17;-0.90;94.60
27368;DHT22;14839;48.106;11.618;2024-01-07T19:30:42;-0.90;94.60
27368;DHT22;14839;48.106;11.618;2024-01-07T19:33:10;-0.90;94.60
27368;DHT22;14839;48.106;11.618;2024-01-07T19:35:36;-0.90;94.60
27368;DHT22;14839;48.106;11.618;2024-01-07T19:38:01;-1.00;94.60
27368;DHT22;14839;48.106;11.618;2024-01-07T19:40:27;-0.90;94.60
27368;DHT22;14839;48.106;11.618;2024-01-07T19:42:54;-1.00;94.60
27368;DHT22;14839;48.106;11.618;2024-01-07T19:45:21;-1.10;94.60
27368;DHT22;14839;48.106;11.618;2024-01-07T19:47:47;-1.20;94.60
27368;DHT22;14839;48.106;11.618;2024-01-07T19:50:13;-1.20;94.60
27368;DHT22;14839;48.106;11.618;2024-01-07T19:52:38;-1.20;94.60
27368;DHT22;14839;48.106;11.618;2024-01-07T19:55:08;-1.30;94.60
27368;DHT22;14839;48.106;11.618;2024-01-07T19:57:39;-1.40;94.60
27368;DHT22;14839;48.106;11.618;2024-01-07T20:00:05;-1.40;94.60
27368;DHT22;14839;48.106;11.618;2024-01-07T20:02:34;-1.50;94.60
27368;DHT22;14839;48.106;11.618;2024-01-07T20:04:59;-1.50;94.60
27368;DHT22;14839;48.106;11.618;2024-01-07T20:07:25;-1.50;94.60
27368;DHT22;14839;48.106;11.618;2024-01-07T20:09:50;-1.50;94.60
27368;DHT22;14839;48.106;11.618;2024-01-07T20:12:16;-1.60;94.60
27368;DHT22;14839;48.106;11.618;2024-01-07T20:14:42;-1.60;94.60
27368;DHT22;14839;48.106;11.618;2024-01-07T20:17:08;-1.60;94.60
27368;DHT22;14839;48.106;11.618;2024-01-07T20:19:35;-1.70;94.60
27368;DHT22;14839;48.106;11.618;2024-01-07T20:22:02;-1.70;94.60
27368;DHT22;14839;48.106;11.618;2024-01-07T20:24:28;-1.70;94.60
27368;DHT22;14839;48.106;11.618;2024-01-07T20:26:53;-1.70;94.60
27368;DHT22;14839;48.106;11.618;2024-01-07T20:29:19;-1.70;94.60
27368;DHT22;14839;48.106;11.618;2024-01-07T20:31:46;-1.80;94.60
27368;DHT22;14839;48.106;11.618;2024-01-07T20:34:12;-1.80;94.60
27368;DHT22;14839;48.106;11.618;2024-01-07T20:36:40;-1.90;94.60
27368;DHT22;14839;48.106;11.618;2024-01-07T20:39:05;-1.80;94.60
27368;DHT22;14839;48.106;11.618;2024-01-07T20:41:31;-1.90;94.60
27368;DHT22;14839;48.106;11.618;2024-01-07T20:43:57;-1.90;94.60
27368;DHT22;14839;48.106;11.618;2024-01-07T20:46:22;-1.90;94.60
27368;DHT22;14839;48.106;11.618;2024-01-07T20:48:48;-2.00;94.60
27368;DHT22;14839;48.106;11.618;2024-01-07T20:51:14;-1.90;94.60
27368;DHT22;14839;48.106;11.618;2024-01-07T20:53:39;-1.90;94.60
27368;DHT22;14839;48.106;11.618;2024-01-07T20:56:07;-1.90;94.60
27368;DHT22;14839;48.106;11.618;2024-01-07T20:58:34;-1.90;94.60
27368;DHT22;14839;48.106;11.618;2024-01-07T21:01:00;-1.90;94.60
27368;DHT22;14839;48.106;11.618;2024-01-07T21:03:26;-2.00;94.60
27368;DHT22;14839;48.106;11.618;2024-01-07T21:05:52;-2.00;94.60
27368;DHT22;14839;48.106;11.618;2024-01-07T21:08:18;-2.00;94.60
27368;DHT22;14839;48.106;11.618;2024-01-07T21:10:44;-2.10;94.60
27368;DHT22;14839;48.106;11.618;2024-01-07T21:13:09;-2.10;94.60
27368;DHT22;14839;48.106;11.618;2024-01-07T21:15:35;-2.00;94.60
27368;DHT22;14839;48.106;11.618;2024-01-07T21:18:04;-2.10;94.60
27368;DHT22;14839;48.106;11.618;2024-01-07T21:20:30;-2.10;94.60
27368;DHT22;14839;48.106;11.618;2024-01-07T21:22:57;-2.20;94.60
27368;DHT22;14839;48.106;11.618;2024-01-07T21:25:23;-2.20;94.60
27368;DHT22;14839;48.106;11.618;2024-01-07T21:27:49;-2.20;94.60
27368;DHT22;14839;48.106;11.618;2024-01-07T21:30:15;-2.10;94.60
27368;DHT22;14839;48.106;11.618;2024-01-07T21:32:41;-2.10;94.60
27368;DHT22;14839;48.106;11.618;2024-01-07T21:35:07;-2.10;94.60
27368;DHT22;14839;48.106;11.618;2024-01-07T21:37:33;-2.00;94.60
27368;DHT22;14839;48.106;11.618;2024-01-07T21:39:59;-2.00;94.60
27368;DHT22;14839;48.106;11.618;2024-01-07T21:42:25;-2.00;94.60
27368;DHT22;14839;48.106;11.618;2024-01-07T21:44:50;-2.10;94.60
27368;DHT22;14839;48.106;11.618;2024-01-07T21:47:16;-2.10;94.60
27368;DHT22;14839;48.106;11.618;2024-01-07T21:49:45;-2.10;94.60
27368;DHT22;14839;48.106;11.618;2024-01-07T21:52:12;-2.10;94.60
27368;DHT22;14839;48.106;11.618;2024-01-07T21:54:37;-2.10;94.60
27368;DHT22;14839;48.106;11.618;2024-01-07T21:57:03;-2.10;94.60
27368;DHT22;14839;48.106;11.618;2024-01-07T21:59:29;-2.10;94.60
27368;DHT22;14839;48.106;11.618;2024-01-07T22:01:54;-2.10;94.60
27368;DHT22;14839;48.106;11.618;2024-01-07T22:04:21;-2.10;94.60
27368;DHT22;14839;48.106;11.618;2024-01-07T22:06:47;-2.10;94.60
27368;DHT22;14839;48.106;11.618;2024-01-07T22:09:13;-2.20;94.60
27368;DHT22;14839;48.106;11.618;2024-01-07T22:11:38;-2.20;94.60
27368;DHT22;14839;48.106;11.618;2024-01-07T22:14:05;-2.10;94.60
27368;DHT22;14839;48.106;11.618;2024-01-07T22:16:31;-2.20;94.60
27368;DHT22;14839;48.106;11.618;2024-01-07T22:18:56;-2.20;94.60
27368;DHT22;14839;48.106;11.618;2024-01-07T22:21:22;-2.20;94.60
27368;DHT22;14839;48.106;11.618;2024-01-07T22:23:48;-2.20;94.60
27368;DHT22;14839;48.106;11.618;2024-01-07T22:26:14;-2.30;94.60
27368;DHT22;14839;48.106;11.618;2024-01-07T22:28:41;-2.30;94.60
